Etusivu
METAR-TAF:

METAR-TAF

Lentoasemat :

Clovis, New Mexico, Yhdysvallat

Leveyspiiri: 34-26N, Pituuspiiri: 103-05W, korkeus merenpinnasta: 1284 m

Tämänhetkinen sää

Tämä raportti tehtiin 29 minuuttia sitten, kello 12.56 UTC
Tuuli 14 kn koillisesta
Lämpötila 2°C
Kosteus 69%
Ilmanpaine 1021 hPa
Näkyvyys: 16.1 km
Pilvistä 3200 ft:n korkeudessa

METAR: KCVN 181256Z AUTO 05014KT 10SM OVC032 02/M03 A3016 RMK AO2 PK WND 04026/1234 SLP221 T00221028 FZRANO

Aika: 06:25 (13:25 UTC)


TAF: puuttuu

Säähavainnot ja -ennusteet yli 4000 lentoasemalta (METAR- ja TAF-raportit).

Käytössä olevat sääasemat on merkitty karttaan keltaisilla ja punaisilla pisteillä.

Aseta hiiri pisteen päälle nähdäksesi sääaseman nimen.

Klikkaa sitten nähdäksesi säähavainnot ja -ennusteet.

Kartan vaihtaminen: klikkaa mustalla rastilla varustettuja vihreitä pisteitä, niin voit zoomata sisään; viivalla varustettua vihreää pistettä, niin voit zoomata ulos tai vihreitä nuolia, niin pääset viereisille kartoille.


METAR-TAF: